Terminal Aerodrome Forecast
Issued by NWS

Home | Current Version | Previous Version | Text Only | Print | Product List | Glossary On
Versions: 1 2 3 4 5 6 7 8 9 10 11 12 13 14 15 16 17 18 19 20 21 22 23 24 25 26
827
FTUS41 KBOX 250416 AAA
TAFBAF
TAF AMD
KBAF 250416Z 2504/2524 00000KT P6SM OVC120
     FM250700 06004KT P6SM OVC090
     FM251000 05006KT P6SM VCSH OVC050
     FM251500 02011KT 3SM -RA OVC015
     FM251800 03010KT 3SM -RA BR OVC008=

USA.gov is the U.S. government's official web portal to all federal, state and local government web resources and services.